| Date | Time | Temp. (oF) | Dew Point (oF) | Rel. Hum. (%) | Press. (in.) | Wind Dir. | Wind Speed (mph) | Hourly Rainfall (in.) |
|
|---|---|---|---|---|---|---|---|---|---|
| 1 | 07/25 | 00:00 | 62 | 61 | 98 | 29.95 | NNE | 0 | 0.00 |
| 2 | 07/24 | 23:00 | 62 | 61 | 97 | 29.94 | S | 0 | 0.00 |
| 3 | 07/24 | 22:00 | 63 | 61 | 95 | 29.93 | S | 0 | 0.00 |
| 4 | 07/24 | 21:00 | 65 | 62 | 92 | 29.91 | SW | 0 | 0.00 |
| 5 | 07/24 | 20:00 | 67 | 63 | 89 | 29.90 | SW | 0 | 0.00 |
| 6 | 07/24 | 19:00 | 67 | 64 | 93 | 29.89 | SSW | 1 | 0.25 |
| 7 | 07/24 | 18:00 | 65 | 61 | 90 | 29.91 | SW | 3 | -0.02 |
| 8 | 07/24 | 16:59 | 72 | 59 | 65 | 29.87 | NNW | 7 | 0.00 |
| 9 | 07/24 | 16:00 | 83 | 64 | 54 | 29.85 | SW | 4 | 0.00 |
| 10 | 07/24 | 15:00 | 83 | 66 | 58 | 29.87 | WSW | 5 | 0.00 |
| 11 | 07/24 | 14:00 | 80 | 67 | 66 | 29.89 | NW | 3 | 0.00 |
| 12 | 07/24 | 13:00 | 79 | 67 | 67 | 29.90 | NNW | 0 | 0.00 |
| 13 | 07/24 | 12:00 | 76 | 67 | 74 | 29.91 | ESE | 0 | 0.00 |
| 14 | 07/24 | 11:00 | 75 | 68 | 81 | 29.91 | WSW | 2 | 0.00 |
| 15 | 07/24 | 10:00 | 72 | 69 | 92 | 29.91 | NNW | 0 | 0.00 |
| 16 | 07/24 | 09:00 | 68 | 67 | 99 | 29.91 | WNW | 0 | 0.00 |
| 17 | 07/24 | 08:00 | 66 | 66 | 100 | 29.89 | NE | 0 | 0.00 |
| 18 | 07/24 | 07:00 | 66 | 66 | 100 | 29.89 | ENE | 0 | 0.00 |
| 19 | 07/24 | 06:00 | 65 | 64 | 100 | 29.86 | ESE | 0 | 0.00 |
| 20 | 07/24 | 05:00 | 65 | 64 | 100 | 29.85 | SE | 0 | 0.00 |
| 21 | 07/24 | 04:00 | 65 | 64 | 100 | 29.86 | ESE | 0 | 0.00 |
| 22 | 07/24 | 03:00 | 65 | 64 | 100 | 29.86 | ENE | 0 | 0.00 |
| 23 | 07/24 | 02:00 | 66 | 66 | 100 | 29.86 | E | 0 | 0.00 |
| 24 | 07/24 | 01:00 | 66 | 66 | 100 | 29.88 | NE | 0 | 0.02 |